»·PEaware :: N822GT KOXR-KPOC

N822GT :: KOXR-KPOC

FLIGHT INFORMATION

Flight Status: Arrived
Operator: Privately registered:
United States
More flights under this callsign
Pilot: James B. (31231)
Aircraft: PIPER PA-28R-201 ARROW
(P28R)
More flights by this aircraft type
Origin: KOXR Oxnard
United States
Destination: KPOC Brackett
United States
More flights between these airports :: More routes between these airports
Route: VTU044 GINNA V326 VNY V186 PDZ
File this flight plan on PilotEdge
Remarks: CUSTOM WEATHER
Altitude:
(Current/Filed)
5,000ft
Speed:
(Current/Filed)
130kts
Departed: 02-Feb-21 06:45 PM
Arrived: 02-Feb-21 08:11 PM
Distance/Time
Traveled:
71nm/1:26
Distance/Time
To Go:
Arrived

Flight Plot

Page will automatically refresh every two minutes.


Map Options




Map Legend


Flown Route
Filed Route
Departure Airport
Arrival Airport
Navaid (VOR, NDB)
Fix

Horizontal Profiles

Position Reports

Time Latitude Longitude Heading Altitude Ground
Speed
02-Feb-21 18:25 34.198726 -119.202074 359 38ft 0kts
02-Feb-21 18:26 34.198726 -119.202074 359 38ft 0kts
02-Feb-21 18:27 34.198726 -119.202074 359 38ft 0kts
02-Feb-21 18:28 34.198726 -119.202074 359 38ft 0kts
02-Feb-21 18:29 34.198726 -119.202074 359 38ft 0kts
02-Feb-21 18:31 34.198726 -119.202074 359 38ft 0kts
02-Feb-21 18:32 34.198726 -119.202074 359 38ft 0kts
02-Feb-21 18:33 34.198726 -119.202074 359 38ft 0kts
02-Feb-21 18:34 34.198726 -119.202074 359 38ft 0kts
02-Feb-21 18:35 34.198726 -119.202074 359 38ft 0kts
02-Feb-21 18:36 34.199223 -119.202082 0 38ft 0kts
02-Feb-21 18:37 34.199223 -119.202082 0 38ft 0kts
02-Feb-21 18:38 34.199223 -119.202082 0 38ft 0kts
02-Feb-21 18:39 34.199223 -119.202082 0 38ft 0kts
02-Feb-21 18:40 34.199223 -119.202082 0 38ft 0kts
02-Feb-21 18:41 34.199656 -119.200999 91 39ft 17kts
02-Feb-21 18:42 34.199928 -119.197523 355 41ft 0kts
02-Feb-21 18:43 34.199928 -119.197523 355 41ft 0kts
02-Feb-21 18:43 34.200697 -119.197756 291 41ft 15kts
02-Feb-21 18:45 34.199951 -119.228916 268 853ft 99kts
02-Feb-21 18:46 34.199682 -119.263369 266 1958ft 104kts
02-Feb-21 18:46 34.196929 -119.292525 257 2687ft 106kts
02-Feb-21 18:48 34.190679 -119.333845 257 3556ft 108kts
02-Feb-21 18:48 34.189668 -119.363640 270 4147ft 107kts
02-Feb-21 18:49 34.187957 -119.399439 269 4810ft 107kts
02-Feb-21 18:51 34.173728 -119.441204 219 5185ft 129kts
02-Feb-21 18:51 34.151615 -119.421080 88 5207ft 136kts
02-Feb-21 18:52 34.143303 -119.374005 89 5042ft 140kts
02-Feb-21 18:53 34.137804 -119.326316 78 4827ft 143kts
02-Feb-21 18:54 34.145687 -119.281050 73 4966ft 131kts
02-Feb-21 18:55 34.153516 -119.236385 73 5061ft 141kts
02-Feb-21 18:56 34.161707 -119.189055 73 5061ft 144kts
02-Feb-21 18:57 34.169985 -119.141052 74 5061ft 144kts
02-Feb-21 18:58 34.178090 -119.093963 74 5061ft 144kts
02-Feb-21 18:59 34.186071 -119.047485 74 5061ft 144kts
02-Feb-21 19:00 34.194215 -118.999946 74 5061ft 144kts
02-Feb-21 19:01 34.202444 -118.951791 74 5061ft 144kts
02-Feb-21 19:02 34.210671 -118.903528 74 5061ft 144kts
02-Feb-21 19:03 34.218733 -118.856114 74 5061ft 144kts
02-Feb-21 19:04 34.222733 -118.807428 85 5061ft 146kts
02-Feb-21 19:05 34.222976 -118.757927 85 5061ft 146kts
02-Feb-21 19:06 34.223097 -118.708943 85 5061ft 146kts
02-Feb-21 19:07 34.223181 -118.659710 85 5061ft 146kts
02-Feb-21 19:08 34.223241 -118.611036 85 5061ft 146kts
02-Feb-21 19:09 34.223280 -118.562467 85 5061ft 146kts
02-Feb-21 19:10 34.223301 -118.514484 85 5061ft 146kts
02-Feb-21 19:11 34.215307 -118.466920 106 5061ft 150kts
02-Feb-21 19:12 34.200953 -118.420348 106 5061ft 150kts
02-Feb-21 19:13 34.186091 -118.372780 106 5061ft 150kts
02-Feb-21 19:14 34.171143 -118.325309 106 5054ft 150kts
02-Feb-21 19:15 34.156348 -118.277250 111 5000ft 152kts
02-Feb-21 19:16 34.140707 -118.230167 107 4963ft 153kts
02-Feb-21 19:17 34.126191 -118.181982 107 4933ft 151kts
02-Feb-21 19:18 34.111224 -118.134635 107 4933ft 150kts
02-Feb-21 19:19 34.096213 -118.087166 107 4933ft 150kts
02-Feb-21 19:20 34.083250 -118.039315 88 4932ft 147kts
02-Feb-21 19:21 34.082730 -117.991075 86 4933ft 146kts
02-Feb-21 19:22 34.082566 -117.966332 86 4933ft 146kts
02-Feb-21 19:23 34.082310 -117.929212 86 4933ft 146kts
02-Feb-21 19:24 34.081959 -117.880539 86 4933ft 146kts
02-Feb-21 19:25 34.081596 -117.832965 86 4933ft 146kts
02-Feb-21 19:26 34.081207 -117.784360 86 4933ft 146kts
02-Feb-21 19:27 34.080797 -117.735556 86 4933ft 146kts
02-Feb-21 19:28 34.078926 -117.687516 89 4932ft 147kts
02-Feb-21 19:29 34.079874 -117.638900 85 4933ft 146kts
02-Feb-21 19:30 34.079460 -117.590978 85 4932ft 132kts
02-Feb-21 19:31 34.079056 -117.547604 85 4933ft 126kts
02-Feb-21 19:32 34.078587 -117.506236 85 4596ft 118kts
02-Feb-21 19:33 34.078125 -117.468210 85 4007ft 107kts
02-Feb-21 19:34 34.056264 -117.461888 253 4033ft 118kts
02-Feb-21 19:35 34.068116 -117.496217 302 4036ft 113kts
02-Feb-21 19:36 34.081056 -117.530435 272 4162ft 107kts
02-Feb-21 19:37 34.081269 -117.563572 277 4503ft 104kts
02-Feb-21 19:38 34.082860 -117.601437 277 4499ft 115kts
02-Feb-21 19:39 34.084850 -117.640895 279 4221ft 118kts
02-Feb-21 19:40 34.088458 -117.680004 278 2843ft 114kts
02-Feb-21 19:41 34.080195 -117.710216 300 2307ft 99kts
02-Feb-21 19:42 34.089212 -117.741913 283 1793ft 104kts
02-Feb-21 19:43 34.089999 -117.778480 264 1620ft 110kts
02-Feb-21 19:44 34.076851 -117.809081 206 2261ft 116kts
02-Feb-21 19:45 34.051387 -117.793080 142 2892ft 112kts
02-Feb-21 19:46 34.020587 -117.785949 179 3289ft 127kts
02-Feb-21 19:47 33.985374 -117.785202 179 3280ft 122kts
02-Feb-21 19:48 33.964144 -117.784741 179 3281ft 120kts
02-Feb-21 19:49 33.931872 -117.779038 136 3282ft 118kts
02-Feb-21 19:50 33.899760 -117.780500 192 4119ft 121kts
02-Feb-21 19:51 33.868766 -117.797746 256 4249ft 147kts
02-Feb-21 19:52 33.890981 -117.816910 16 4070ft 121kts
02-Feb-21 19:53 33.909993 -117.786537 63 4144ft 116kts
02-Feb-21 19:54 33.924520 -117.748920 63 3986ft 131kts
02-Feb-21 19:55 33.935509 -117.708441 63 4099ft 113kts
02-Feb-21 19:56 33.949280 -117.672534 61 4115ft 123kts
02-Feb-21 19:57 33.963812 -117.632473 66 3962ft 128kts
02-Feb-21 19:58 33.978050 -117.593211 61 3963ft 126kts
02-Feb-21 19:59 33.991576 -117.553616 59 4049ft 126kts
02-Feb-21 20:00 34.007929 -117.517139 60 4039ft 131kts
02-Feb-21 20:01 34.035577 -117.505447 351 4072ft 123kts
02-Feb-21 20:02 34.069980 -117.508560 355 4026ft 125kts
02-Feb-21 20:03 34.076112 -117.537067 271 4341ft 117kts
02-Feb-21 20:04 34.079948 -117.578030 281 4249ft 128kts
02-Feb-21 20:05 34.083041 -117.619530 278 4308ft 126kts
02-Feb-21 20:06 34.085976 -117.658750 275 3392ft 112kts
02-Feb-21 20:07 34.084107 -117.691037 287 3262ft 95kts
02-Feb-21 20:08 34.087809 -117.726077 280 2860ft 113kts
02-Feb-21 20:09 34.090490 -117.764661 276 1322ft 99kts
02-Feb-21 20:10 34.091520 -117.786932 272 979ft 15kts
02-Feb-21 20:11 34.091247 -117.790448 170 968ft 0kts

Navigation Log

Ident Type
Flight plan parsing failed, navigation log unavailable